Time;durP1;ratioP1;P1;durP2;ratioP2;P2;SDS_P1;SDS_P2;PMS_P1;PMS_P2;Temp;Humidity;BMP_temperature;BMP_pressure;BME280_temperature;BME280_humidity;BME280_pressure;Samples;Min_cycle;Max_cycle;Signal;HPM_P1;HPM_P2
2024/01/31 00:00:08;;;;;;;4.43;2.47;;;;;;;;;;4995337;28;20121;-66
2024/01/31 00:02:34;;;;;;;4.10;2.70;;;;;;;;;;4995513;28;20050;-66
2024/01/31 00:05:00;;;;;;;3.47;2.30;;;;;;;;;;4997279;28;20042;-66
2024/01/31 00:07:25;;;;;;;6.00;2.50;;;;;;;;;;4995537;28;20052;-66
2024/01/31 00:09:50;;;;;;;4.45;2.58;;;;;;;;;;4996442;28;20041;-65
2024/01/31 00:12:16;;;;;;;6.45;2.72;;;;;;;;;;4995762;28;20060;-66
2024/01/31 00:14:45;;;;;;;4.22;2.78;;;;;;;;;;4995415;28;20054;-65
2024/01/31 00:17:11;;;;;;;3.75;2.53;;;;;;;;;;4995424;28;20771;-66
2024/01/31 00:19:36;;;;;;;4.20;2.42;;;;;;;;;;4994695;28;20056;-66
2024/01/31 00:22:01;;;;;;;4.25;2.50;;;;;;;;;;4995964;28;20053;-65
2024/01/31 00:24:27;;;;;;;3.78;2.35;;;;;;;;;;4995411;28;20058;-66
2024/01/31 00:26:52;;;;;;;4.20;2.17;;;;;;;;;;4996931;28;20046;-66
2024/01/31 00:29:18;;;;;;;3.15;2.58;;;;;;;;;;4995799;28;20053;-66
2024/01/31 00:31:43;;;;;;;2.78;2.28;;;;;;;;;;4994463;28;20042;-65
2024/01/31 00:34:08;;;;;;;3.08;2.28;;;;;;;;;;4995162;28;20124;-66
2024/01/31 00:36:34;;;;;;;3.67;2.15;;;;;;;;;;4995016;28;20048;-65
2024/01/31 00:38:59;;;;;;;2.25;2.05;;;;;;;;;;4995588;28;20317;-66
2024/01/31 00:41:25;;;;;;;3.13;2.10;;;;;;;;;;4994920;28;20049;-65
2024/01/31 00:43:51;;;;;;;5.65;2.80;;;;;;;;;;4996029;28;20049;-65
2024/01/31 00:46:17;;;;;;;3.05;2.40;;;;;;;;;;4995239;28;20054;-65
2024/01/31 00:48:43;;;;;;;3.70;2.40;;;;;;;;;;4994969;28;20050;-65
2024/01/31 00:51:12;;;;;;;2.42;2.10;;;;;;;;;;4996282;28;20102;-64
2024/01/31 00:53:38;;;;;;;4.13;2.55;;;;;;;;;;4994482;28;20072;-65
2024/01/31 00:56:04;;;;;;;3.90;2.30;;;;;;;;;;4995347;28;20072;-65
2024/01/31 00:58:30;;;;;;;2.33;2.05;;;;;;;;;;4994086;28;20168;-65
2024/01/31 01:00:56;;;;;;;4.05;2.17;;;;;;;;;;4996242;28;20060;-65
2024/01/31 01:03:21;;;;;;;2.72;2.38;;;;;;;;;;4994327;28;20037;-65
2024/01/31 01:05:46;;;;;;;3.00;2.40;;;;;;;;;;4993522;28;20513;-64
2024/01/31 01:08:12;;;;;;;2.95;2.30;;;;;;;;;;4992338;28;20410;-65
2024/01/31 01:10:37;;;;;;;3.13;2.08;;;;;;;;;;4993760;28;20047;-64
2024/01/31 01:13:03;;;;;;;3.53;2.45;;;;;;;;;;4993390;28;20042;-64
2024/01/31 01:15:28;;;;;;;3.65;2.40;;;;;;;;;;4992773;28;20045;-65
2024/01/31 01:17:53;;;;;;;4.20;2.50;;;;;;;;;;4994276;28;20034;-65
2024/01/31 01:20:19;;;;;;;3.88;2.70;;;;;;;;;;4994534;28;20104;-66
2024/01/31 01:22:45;;;;;;;2.53;2.30;;;;;;;;;;4993995;28;20124;-66
2024/01/31 01:25:10;;;;;;;3.72;2.55;;;;;;;;;;4995836;28;20504;-65
2024/01/31 01:27:36;;;;;;;3.55;2.72;;;;;;;;;;4993353;28;20449;-65
2024/01/31 01:30:02;;;;;;;6.05;3.25;;;;;;;;;;4996029;28;20768;-64
2024/01/31 01:32:27;;;;;;;2.53;2.10;;;;;;;;;;4994652;28;20519;-65
2024/01/31 01:34:53;;;;;;;7.68;2.80;;;;;;;;;;4995902;28;20046;-65
2024/01/31 01:37:18;;;;;;;4.03;2.70;;;;;;;;;;4995310;28;20049;-65
2024/01/31 01:39:45;;;;;;;4.68;2.47;;;;;;;;;;4993948;28;20145;-65
2024/01/31 01:42:11;;;;;;;4.40;2.72;;;;;;;;;;4994811;28;20045;-66
2024/01/31 01:44:42;;;;;;;4.05;2.45;;;;;;;;;;4994710;28;20050;-65
2024/01/31 01:47:08;;;;;;;4.63;2.78;;;;;;;;;;4995548;28;20057;-65
2024/01/31 01:49:34;;;;;;;3.33;2.55;;;;;;;;;;4994276;28;20128;-64
2024/01/31 01:52:00;;;;;;;4.45;2.90;;;;;;;;;;4995174;28;20071;-64
2024/01/31 01:54:25;;;;;;;3.58;2.92;;;;;;;;;;4976767;28;20058;-64
2024/01/31 01:56:52;;;;;;;4.78;3.10;;;;;;;;;;4977842;28;20052;-64
2024/01/31 01:59:18;;;;;;;4.30;3.03;;;;;;;;;;4995130;28;20483;-64
2024/01/31 02:01:45;;;;;;;6.30;2.85;;;;;;;;;;4993375;28;20065;-64
2024/01/31 02:04:10;;;;;;;6.18;3.92;;;;;;;;;;4994243;28;20057;-65
2024/01/31 02:06:36;;;;;;;4.80;3.00;;;;;;;;;;4995196;28;20045;-65
2024/01/31 02:09:03;;;;;;;4.43;2.90;;;;;;;;;;4996112;28;20626;-64
2024/01/31 02:11:29;;;;;;;3.97;3.03;;;;;;;;;;4998046;28;20531;-64
2024/01/31 02:13:57;;;;;;;4.55;3.10;;;;;;;;;;4981263;28;20042;-64
2024/01/31 02:16:22;;;;;;;4.30;3.28;;;;;;;;;;4998247;28;20121;-65
2024/01/31 02:18:47;;;;;;;5.93;3.15;;;;;;;;;;4997538;28;20380;-66
2024/01/31 02:21:16;;;;;;;5.40;2.85;;;;;;;;;;4998634;28;20046;-65
2024/01/31 02:23:41;;;;;;;4.22;2.92;;;;;;;;;;4996960;28;20046;-65
2024/01/31 02:26:06;;;;;;;6.97;3.45;;;;;;;;;;4998393;28;20053;-66
2024/01/31 02:28:32;;;;;;;5.88;3.13;;;;;;;;;;4997494;28;20073;-65
2024/01/31 02:30:57;;;;;;;3.88;3.17;;;;;;;;;;4998638;28;20042;-67
2024/01/31 02:33:22;;;;;;;4.07;3.10;;;;;;;;;;4997025;28;20070;-66
2024/01/31 02:35:48;;;;;;;4.32;2.67;;;;;;;;;;4998616;28;20053;-65
2024/01/31 02:38:13;;;;;;;3.78;3.10;;;;;;;;;;4997059;28;20041;-66
2024/01/31 02:40:39;;;;;;;5.22;3.00;;;;;;;;;;4980831;28;20060;-65
2024/01/31 02:43:04;;;;;;;4.22;3.33;;;;;;;;;;4998187;28;20502;-65
2024/01/31 02:45:29;;;;;;;6.13;3.38;;;;;;;;;;4999311;28;20886;-64
2024/01/31 02:47:55;;;;;;;4.65;3.00;;;;;;;;;;5000035;28;20148;-64
2024/01/31 02:50:20;;;;;;;6.07;2.83;;;;;;;;;;4997828;28;20034;-66
2024/01/31 02:52:47;;;;;;;4.80;3.00;;;;;;;;;;4997291;28;20046;-65
2024/01/31 02:55:12;;;;;;;4.43;3.03;;;;;;;;;;4997771;28;20149;-65
2024/01/31 02:57:38;;;;;;;11.90;3.28;;;;;;;;;;4980396;28;20123;-66
2024/01/31 03:00:04;;;;;;;5.45;2.97;;;;;;;;;;4997916;28;20084;-65
2024/01/31 03:02:30;;;;;;;4.57;3.22;;;;;;;;;;4996962;28;20638;-66
2024/01/31 03:04:55;;;;;;;5.32;3.10;;;;;;;;;;4997257;28;20046;-66
2024/01/31 03:07:21;;;;;;;4.25;2.92;;;;;;;;;;4997539;28;20042;-65
2024/01/31 03:09:46;;;;;;;6.97;3.17;;;;;;;;;;4996784;28;20046;-65
2024/01/31 03:12:11;;;;;;;5.20;3.10;;;;;;;;;;4997129;28;20788;-66
2024/01/31 03:14:37;;;;;;;4.50;2.85;;;;;;;;;;4996769;28;20073;-66
2024/01/31 03:17:03;;;;;;;6.80;3.10;;;;;;;;;;4997276;28;20096;-66
2024/01/31 03:19:29;;;;;;;7.35;3.38;;;;;;;;;;4996536;28;20093;-65
2024/01/31 03:21:55;;;;;;;5.38;3.17;;;;;;;;;;4996670;28;20050;-65
2024/01/31 03:24:21;;;;;;;6.30;3.50;;;;;;;;;;4995936;28;21100;-66
2024/01/31 03:26:47;;;;;;;8.30;4.25;;;;;;;;;;4997133;28;20121;-66
2024/01/31 03:29:12;;;;;;;8.63;4.35;;;;;;;;;;4979031;28;20145;-65
2024/01/31 03:31:38;;;;;;;8.93;4.15;;;;;;;;;;4996870;28;20054;-65
2024/01/31 03:34:04;;;;;;;7.75;4.25;;;;;;;;;;4997913;28;20053;-65
2024/01/31 03:36:30;;;;;;;7.82;3.75;;;;;;;;;;4996403;28;20074;-66
2024/01/31 03:38:58;;;;;;;6.25;3.20;;;;;;;;;;4996475;28;20168;-65
2024/01/31 03:41:24;;;;;;;7.95;3.35;;;;;;;;;;4996838;28;20100;-65
2024/01/31 03:43:50;;;;;;;8.82;3.45;;;;;;;;;;4996775;28;20089;-65
2024/01/31 03:46:15;;;;;;;5.15;3.63;;;;;;;;;;4997355;28;20073;-65
2024/01/31 03:48:41;;;;;;;6.55;3.55;;;;;;;;;;4996254;28;20971;-66
2024/01/31 03:51:06;;;;;;;4.90;3.15;;;;;;;;;;4996814;28;20061;-66
2024/01/31 03:53:31;;;;;;;4.47;2.65;;;;;;;;;;4996297;28;20065;-66
2024/01/31 03:55:57;;;;;;;5.57;2.75;;;;;;;;;;4996829;28;20069;-66
2024/01/31 03:58:22;;;;;;;5.22;2.88;;;;;;;;;;4995901;28;20529;-66
2024/01/31 04:00:48;;;;;;;6.25;2.92;;;;;;;;;;4996160;28;20076;-65
2024/01/31 04:03:14;;;;;;;5.28;2.97;;;;;;;;;;4995487;28;20045;-65
2024/01/31 04:05:39;;;;;;;4.55;2.90;;;;;;;;;;4996887;28;20046;-65
2024/01/31 04:08:05;;;;;;;2.95;2.65;;;;;;;;;;4995309;28;20038;-66
2024/01/31 04:10:30;;;;;;;4.97;3.00;;;;;;;;;;4996686;28;20052;-65
2024/01/31 04:12:56;;;;;;;3.90;3.03;;;;;;;;;;4978761;28;20049;-65
2024/01/31 04:15:21;;;;;;;6.47;3.00;;;;;;;;;;4996723;28;20046;-65
2024/01/31 04:17:47;;;;;;;4.93;2.67;;;;;;;;;;4995302;28;20411;-66
2024/01/31 04:20:12;;;;;;;5.25;3.40;;;;;;;;;;4996451;28;21073;-65
2024/01/31 04:22:38;;;;;;;3.53;2.90;;;;;;;;;;4996726;28;20049;-65
2024/01/31 04:25:04;;;;;;;4.70;3.17;;;;;;;;;;4995596;28;20404;-65
2024/01/31 04:27:30;;;;;;;5.72;3.25;;;;;;;;;;4996214;28;20050;-65
2024/01/31 04:29:55;;;;;;;3.33;2.90;;;;;;;;;;4995323;28;20046;-65
2024/01/31 04:32:23;;;;;;;4.55;3.30;;;;;;;;;;4995455;28;20060;-66
2024/01/31 04:34:48;;;;;;;3.88;3.10;;;;;;;;;;4995790;28;20136;-65
2024/01/31 04:37:13;;;;;;;7.45;3.45;;;;;;;;;;4994678;28;20133;-66
2024/01/31 04:39:39;;;;;;;4.57;3.25;;;;;;;;;;4996015;28;21292;-65
2024/01/31 04:42:04;;;;;;;5.00;3.00;;;;;;;;;;4977328;28;20068;-69
2024/01/31 04:44:30;;;;;;;6.03;3.22;;;;;;;;;;4996469;28;20108;-66
2024/01/31 04:46:55;;;;;;;6.15;3.33;;;;;;;;;;4994360;28;20058;-64
2024/01/31 04:49:21;;;;;;;3.63;3.08;;;;;;;;;;4995912;28;20049;-64
2024/01/31 04:51:47;;;;;;;3.35;2.95;;;;;;;;;;4989723;28;20123;-64
2024/01/31 04:54:12;;;;;;;3.20;2.72;;;;;;;;;;4995060;28;20038;-63
2024/01/31 04:56:37;;;;;;;4.88;3.28;;;;;;;;;;4994852;28;20969;-64
2024/01/31 04:59:03;;;;;;;4.38;2.88;;;;;;;;;;4995018;28;20757;-64
2024/01/31 05:01:28;;;;;;;4.68;3.28;;;;;;;;;;4995931;28;20042;-64
2024/01/31 05:03:57;;;;;;;7.90;3.50;;;;;;;;;;4994824;28;20550;-64
2024/01/31 05:06:22;;;;;;;6.35;3.50;;;;;;;;;;4994095;28;20648;-65
2024/01/31 05:08:48;;;;;;;4.35;3.08;;;;;;;;;;4993122;28;20050;-65
2024/01/31 05:11:13;;;;;;;4.43;3.15;;;;;;;;;;4995199;28;20077;-64
2024/01/31 05:13:39;;;;;;;5.13;3.35;;;;;;;;;;4992320;28;20065;-64
2024/01/31 05:16:09;;;;;;;7.05;3.90;;;;;;;;;;4992893;28;20119;-66
2024/01/31 05:18:35;;;;;;;6.28;3.38;;;;;;;;;;4994668;28;20045;-65
2024/01/31 05:21:01;;;;;;;6.00;3.75;;;;;;;;;;4993411;28;20056;-64
2024/01/31 05:23:26;;;;;;;6.13;3.53;;;;;;;;;;4993964;28;20049;-64
2024/01/31 05:25:52;;;;;;;6.50;3.58;;;;;;;;;;4993887;28;20045;-64
2024/01/31 05:28:17;;;;;;;5.65;3.50;;;;;;;;;;4995136;28;20049;-66
2024/01/31 05:30:43;;;;;;;9.93;4.07;;;;;;;;;;4994606;28;20049;-64
2024/01/31 05:33:09;;;;;;;7.95;4.32;;;;;;;;;;4978031;28;20073;-65
2024/01/31 05:35:36;;;;;;;4.90;3.72;;;;;;;;;;4995035;28;20647;-66
2024/01/31 05:38:03;;;;;;;7.05;4.10;;;;;;;;;;4992876;28;20587;-65
2024/01/31 05:40:29;;;;;;;4.75;3.30;;;;;;;;;;4990094;28;20062;-65
2024/01/31 05:42:54;;;;;;;7.40;4.28;;;;;;;;;;4976483;28;20046;-65
2024/01/31 05:45:20;;;;;;;7.53;3.90;;;;;;;;;;4994530;28;20103;-65
2024/01/31 05:47:45;;;;;;;6.50;4.13;;;;;;;;;;4977336;28;20069;-65
2024/01/31 05:50:11;;;;;;;5.80;3.55;;;;;;;;;;4992646;28;20037;-67
2024/01/31 05:52:36;;;;;;;9.88;4.88;;;;;;;;;;4993760;28;20081;-65
2024/01/31 05:55:01;;;;;;;11.27;5.47;;;;;;;;;;4994019;28;20128;-65
2024/01/31 05:57:27;;;;;;;15.73;6.60;;;;;;;;;;4992495;28;20484;-65
2024/01/31 05:59:52;;;;;;;6.05;4.28;;;;;;;;;;4993702;28;20041;-65
2024/01/31 06:02:18;;;;;;;5.10;3.10;;;;;;;;;;4990495;28;20038;-65
2024/01/31 06:04:43;;;;;;;6.28;4.00;;;;;;;;;;4994830;28;20458;-65
2024/01/31 06:07:10;;;;;;;5.70;3.65;;;;;;;;;;4993845;28;20045;-65
2024/01/31 06:09:36;;;;;;;9.13;4.38;;;;;;;;;;4993512;28;20098;-65
2024/01/31 06:12:02;;;;;;;9.30;5.18;;;;;;;;;;4992111;28;20048;-65
2024/01/31 06:14:28;;;;;;;6.78;4.32;;;;;;;;;;4993762;28;20168;-65
2024/01/31 06:16:53;;;;;;;10.20;4.32;;;;;;;;;;4989903;28;20553;-65
2024/01/31 06:19:18;;;;;;;8.63;4.00;;;;;;;;;;4990731;28;20092;-64
2024/01/31 06:21:44;;;;;;;5.35;3.92;;;;;;;;;;4988493;28;20108;-64
2024/01/31 06:24:09;;;;;;;5.50;3.70;;;;;;;;;;4989598;28;20050;-65
2024/01/31 06:26:39;;;;;;;8.73;4.28;;;;;;;;;;4991888;28;20049;-65
2024/01/31 06:29:05;;;;;;;5.22;3.47;;;;;;;;;;4991243;28;20128;-63
2024/01/31 06:31:35;;;;;;;4.82;3.63;;;;;;;;;;4992312;28;20050;-65
2024/01/31 06:34:01;;;;;;;5.03;3.60;;;;;;;;;;4993271;28;20050;-65
2024/01/31 06:36:26;;;;;;;6.70;3.92;;;;;;;;;;4993154;28;20080;-65
2024/01/31 06:38:51;;;;;;;5.75;3.90;;;;;;;;;;4994995;28;20038;-65
2024/01/31 06:41:18;;;;;;;6.22;4.30;;;;;;;;;;4990860;28;20042;-65
2024/01/31 06:43:44;;;;;;;5.38;4.18;;;;;;;;;;4993640;28;20050;-63
2024/01/31 06:46:10;;;;;;;8.55;4.85;;;;;;;;;;4991986;28;20077;-64
2024/01/31 06:48:35;;;;;;;12.57;6.03;;;;;;;;;;4994737;28;21064;-64
2024/01/31 06:51:01;;;;;;;9.13;5.32;;;;;;;;;;4993265;28;20050;-65
2024/01/31 06:53:29;;;;;;;10.65;6.63;;;;;;;;;;4991900;28;20042;-64
2024/01/31 06:55:54;;;;;;;14.30;8.50;;;;;;;;;;4994408;28;20046;-64
2024/01/31 06:58:20;;;;;;;14.13;6.70;;;;;;;;;;4995110;28;20045;-66
2024/01/31 07:00:45;;;;;;;13.30;7.05;;;;;;;;;;4994712;28;20652;-63
2024/01/31 07:03:11;;;;;;;10.52;6.53;;;;;;;;;;4997781;28;20053;-65
2024/01/31 07:05:37;;;;;;;9.68;6.10;;;;;;;;;;4998012;28;20059;-66
2024/01/31 07:08:02;;;;;;;9.93;5.72;;;;;;;;;;4997224;28;20067;-66
2024/01/31 07:10:27;;;;;;;12.40;6.15;;;;;;;;;;4996417;28;20082;-63
2024/01/31 07:12:53;;;;;;;9.75;6.05;;;;;;;;;;4998065;28;20077;-66
2024/01/31 07:15:21;;;;;;;7.68;5.32;;;;;;;;;;4997598;28;20045;-63
2024/01/31 07:17:47;;;;;;;9.20;5.75;;;;;;;;;;4997054;28;20042;-66
2024/01/31 07:20:12;;;;;;;10.13;6.05;;;;;;;;;;4996043;28;20056;-65
2024/01/31 07:22:38;;;;;;;7.70;5.30;;;;;;;;;;4997309;28;20806;-63
2024/01/31 07:25:03;;;;;;;10.32;4.65;;;;;;;;;;4995988;28;20141;-63
2024/01/31 07:27:29;;;;;;;7.35;4.53;;;;;;;;;;4997020;28;20049;-66
2024/01/31 07:29:54;;;;;;;7.68;4.40;;;;;;;;;;4997322;28;20046;-65
2024/01/31 07:32:20;;;;;;;7.72;4.90;;;;;;;;;;4994367;28;20045;-66
2024/01/31 07:34:45;;;;;;;9.15;4.10;;;;;;;;;;4998050;28;20076;-67
2024/01/31 07:37:10;;;;;;;8.18;4.63;;;;;;;;;;4996497;28;20050;-62
2024/01/31 07:39:36;;;;;;;6.78;4.65;;;;;;;;;;4997981;28;20141;-66
2024/01/31 07:42:01;;;;;;;9.88;4.38;;;;;;;;;;4995732;28;20535;-63
2024/01/31 07:44:27;;;;;;;4.85;3.63;;;;;;;;;;4977586;28;20124;-66
2024/01/31 07:46:52;;;;;;;5.60;3.60;;;;;;;;;;4995869;28;20061;-62
2024/01/31 07:49:18;;;;;;;7.88;4.43;;;;;;;;;;4996922;28;20054;-66
2024/01/31 07:51:44;;;;;;;4.32;3.45;;;;;;;;;;4997375;28;20123;-65
2024/01/31 07:54:09;;;;;;;8.38;4.05;;;;;;;;;;4995243;28;20054;-66
2024/01/31 07:56:35;;;;;;;6.78;3.35;;;;;;;;;;4996942;28;20224;-65
2024/01/31 07:59:00;;;;;;;5.60;3.50;;;;;;;;;;4996558;28;20084;-65
2024/01/31 08:01:26;;;;;;;5.90;3.25;;;;;;;;;;4996464;28;20754;-65
2024/01/31 08:03:51;;;;;;;5.05;3.30;;;;;;;;;;4996312;28;20053;-65
2024/01/31 08:06:16;;;;;;;6.00;3.60;;;;;;;;;;4994287;28;20046;-66
2024/01/31 08:08:45;;;;;;;7.20;3.40;;;;;;;;;;4997718;28;20169;-66
2024/01/31 08:11:11;;;;;;;5.78;4.18;;;;;;;;;;4995797;28;20107;-66
2024/01/31 08:13:39;;;;;;;5.15;3.80;;;;;;;;;;4995807;28;20050;-66
2024/01/31 08:16:05;;;;;;;6.00;4.00;;;;;;;;;;4995176;28;20080;-66
2024/01/31 08:18:31;;;;;;;5.60;3.58;;;;;;;;;;4996234;28;20863;-66
2024/01/31 08:20:56;;;;;;;8.35;4.28;;;;;;;;;;4996580;28;20046;-66
2024/01/31 08:23:22;;;;;;;4.05;3.63;;;;;;;;;;4995421;28;20809;-66
2024/01/31 08:25:47;;;;;;;4.68;3.15;;;;;;;;;;4995419;28;20049;-66
2024/01/31 08:28:12;;;;;;;5.47;3.70;;;;;;;;;;4995392;28;20049;-67
2024/01/31 08:30:38;;;;;;;5.57;3.88;;;;;;;;;;4995722;28;20096;-66
2024/01/31 08:33:03;;;;;;;7.47;4.00;;;;;;;;;;4995543;28;20665;-66
2024/01/31 08:35:29;;;;;;;7.43;4.05;;;;;;;;;;4979625;28;20116;-66
2024/01/31 08:37:56;;;;;;;5.35;3.70;;;;;;;;;;4995528;28;20692;-65
2024/01/31 08:40:21;;;;;;;6.22;4.10;;;;;;;;;;4977710;28;20088;-66
2024/01/31 08:42:47;;;;;;;6.53;4.25;;;;;;;;;;4997524;28;20049;-66
2024/01/31 08:45:13;;;;;;;8.20;4.57;;;;;;;;;;4994752;28;20513;-67
2024/01/31 08:47:39;;;;;;;7.18;4.68;;;;;;;;;;4995154;28;20085;-66
2024/01/31 08:50:05;;;;;;;9.77;4.80;;;;;;;;;;4994446;28;20160;-66
2024/01/31 08:52:30;;;;;;;6.22;4.00;;;;;;;;;;4978693;28;20060;-65
2024/01/31 08:54:56;;;;;;;10.27;4.78;;;;;;;;;;4995666;28;20154;-66
2024/01/31 08:57:21;;;;;;;6.70;4.25;;;;;;;;;;4994935;28;20053;-66
2024/01/31 08:59:47;;;;;;;6.25;3.80;;;;;;;;;;4995782;28;20077;-66
2024/01/31 09:02:12;;;;;;;7.10;4.68;;;;;;;;;;4993897;28;20133;-67
2024/01/31 09:04:37;;;;;;;5.88;4.43;;;;;;;;;;4995962;28;20048;-66
2024/01/31 09:07:03;;;;;;;8.25;5.28;;;;;;;;;;4995417;28;20073;-67
2024/01/31 09:09:30;;;;;;;8.43;4.88;;;;;;;;;;4994775;28;20081;-67
2024/01/31 09:11:55;;;;;;;10.15;5.40;;;;;;;;;;4995391;28;20041;-67
2024/01/31 09:14:20;;;;;;;7.72;4.93;;;;;;;;;;4994577;28;20045;-67
2024/01/31 09:16:46;;;;;;;9.85;4.70;;;;;;;;;;4994669;28;20057;-67
2024/01/31 09:19:11;;;;;;;6.95;4.68;;;;;;;;;;4993649;28;20100;-66
2024/01/31 09:21:37;;;;;;;6.65;4.57;;;;;;;;;;4993934;28;20434;-66
2024/01/31 09:24:02;;;;;;;8.27;5.07;;;;;;;;;;4995335;28;20046;-66
2024/01/31 09:26:28;;;;;;;6.32;4.38;;;;;;;;;;4994225;28;20180;-66
2024/01/31 09:28:53;;;;;;;7.53;4.43;;;;;;;;;;4995086;28;20056;-66
2024/01/31 09:31:21;;;;;;;6.28;4.68;;;;;;;;;;4994393;28;20042;-66
2024/01/31 09:33:47;;;;;;;7.43;4.43;;;;;;;;;;4995282;28;20042;-66
2024/01/31 09:36:12;;;;;;;5.75;4.30;;;;;;;;;;4994455;28;20503;-65
2024/01/31 09:38:37;;;;;;;12.43;4.93;;;;;;;;;;4995062;28;20042;-65
2024/01/31 09:41:03;;;;;;;6.18;4.55;;;;;;;;;;4995145;28;20049;-65
2024/01/31 09:43:28;;;;;;;6.85;4.88;;;;;;;;;;4993537;28;20053;-66
2024/01/31 09:45:56;;;;;;;7.28;4.25;;;;;;;;;;4995209;28;20607;-66
2024/01/31 09:48:22;;;;;;;6.93;4.78;;;;;;;;;;4993324;28;20049;-67
2024/01/31 09:50:48;;;;;;;6.55;4.32;;;;;;;;;;4994909;28;21093;-68
2024/01/31 09:53:15;;;;;;;5.90;4.38;;;;;;;;;;4993071;28;20132;-66
2024/01/31 09:55:42;;;;;;;5.85;3.92;;;;;;;;;;4994592;28;20048;-65
2024/01/31 09:58:07;;;;;;;5.70;4.03;;;;;;;;;;4994661;28;20054;-70
2024/01/31 10:00:33;;;;;;;6.80;4.43;;;;;;;;;;4993325;28;20045;-65
2024/01/31 10:02:58;;;;;;;10.35;4.80;;;;;;;;;;4993536;28;20042;-67
2024/01/31 10:05:24;;;;;;;7.00;4.03;;;;;;;;;;4994195;28;20045;-66
2024/01/31 10:07:49;;;;;;;8.38;3.97;;;;;;;;;;4977987;28;20042;-66
2024/01/31 10:10:15;;;;;;;5.82;4.10;;;;;;;;;;4994050;28;20041;-65
2024/01/31 10:12:41;;;;;;;6.55;4.40;;;;;;;;;;4995197;28;20073;-66
2024/01/31 10:15:09;;;;;;;6.53;4.43;;;;;;;;;;4978706;28;20045;-66
2024/01/31 10:17:35;;;;;;;6.40;4.30;;;;;;;;;;4994784;28;20403;-66
2024/01/31 10:20:07;;;;;;;7.85;5.03;;;;;;;;;;4994986;28;20045;-66
2024/01/31 10:22:34;;;;;;;7.03;4.60;;;;;;;;;;4993332;28;20054;-68
2024/01/31 10:25:00;;;;;;;10.70;4.95;;;;;;;;;;4995544;28;21035;-68
2024/01/31 10:27:25;;;;;;;5.75;4.00;;;;;;;;;;4994012;28;20736;-68
2024/01/31 10:29:53;;;;;;;5.80;4.00;;;;;;;;;;4979335;28;20060;-66
2024/01/31 10:32:20;;;;;;;9.40;4.45;;;;;;;;;;4980956;28;20092;-69
2024/01/31 10:34:47;;;;;;;6.32;4.45;;;;;;;;;;4999361;28;20045;-68
2024/01/31 10:37:14;;;;;;;7.00;4.75;;;;;;;;;;4979611;28;20046;-66
2024/01/31 10:39:39;;;;;;;10.40;4.65;;;;;;;;;;4999166;28;20049;-66
2024/01/31 10:42:06;;;;;;;5.57;4.10;;;;;;;;;;4997415;28;20052;-66
2024/01/31 10:44:36;;;;;;;6.40;3.97;;;;;;;;;;4997353;28;20176;-66
2024/01/31 10:47:03;;;;;;;9.48;4.25;;;;;;;;;;4998056;28;20050;-66
2024/01/31 10:49:29;;;;;;;9.50;3.53;;;;;;;;;;4998038;28;20152;-66
2024/01/31 10:51:56;;;;;;;7.10;3.97;;;;;;;;;;4997696;28;20038;-68
2024/01/31 10:54:27;;;;;;;8.25;4.75;;;;;;;;;;4997166;28;20065;-68
2024/01/31 10:56:52;;;;;;;6.60;4.40;;;;;;;;;;4997585;28;20041;-68
2024/01/31 10:59:18;;;;;;;8.00;4.03;;;;;;;;;;4979580;28;20038;-68
2024/01/31 11:01:55;;;;;;;4.72;3.60;;;;;;;;;;4997652;28;20396;-68
2024/01/31 11:04:21;;;;;;;6.38;4.45;;;;;;;;;;4996562;28;20053;-68
2024/01/31 11:06:51;;;;;;;8.07;4.88;;;;;;;;;;4997628;28;20061;-68
2024/01/31 11:09:20;;;;;;;6.93;3.97;;;;;;;;;;4997408;28;20052;-68
2024/01/31 11:11:45;;;;;;;11.35;4.35;;;;;;;;;;4996156;28;20095;-68
2024/01/31 11:14:14;;;;;;;7.47;4.35;;;;;;;;;;4997459;28;20784;-68
2024/01/31 11:16:41;;;;;;;5.30;4.18;;;;;;;;;;4997280;28;20867;-68
2024/01/31 11:19:08;;;;;;;9.43;4.35;;;;;;;;;;4997334;28;20491;-68
2024/01/31 11:21:37;;;;;;;10.07;4.00;;;;;;;;;;4995507;28;20084;-68
2024/01/31 11:24:03;;;;;;;6.47;3.85;;;;;;;;;;4996800;28;20049;-68
2024/01/31 11:26:35;;;;;;;5.35;3.63;;;;;;;;;;4996387;28;20050;-68
2024/01/31 11:29:01;;;;;;;5.28;3.47;;;;;;;;;;4997695;28;20139;-68
2024/01/31 11:31:28;;;;;;;7.95;3.70;;;;;;;;;;4995769;28;20092;-67
2024/01/31 11:33:56;;;;;;;6.75;3.70;;;;;;;;;;4997184;28;20169;-68
2024/01/31 11:36:22;;;;;;;5.20;3.60;;;;;;;;;;4996075;28;20141;-67
2024/01/31 11:38:47;;;;;;;8.70;3.42;;;;;;;;;;4997032;28;20087;-68
2024/01/31 11:41:12;;;;;;;6.63;3.25;;;;;;;;;;4997130;28;20630;-68
2024/01/31 11:43:38;;;;;;;10.10;3.22;;;;;;;;;;4995629;28;20042;-67
2024/01/31 11:46:04;;;;;;;6.30;3.08;;;;;;;;;;4997082;28;20046;-67
2024/01/31 11:48:31;;;;;;;4.40;3.05;;;;;;;;;;4979256;28;20100;-68
2024/01/31 11:50:57;;;;;;;4.32;3.30;;;;;;;;;;4997260;28;20534;-67
2024/01/31 11:53:22;;;;;;;5.45;2.60;;;;;;;;;;4996815;28;20065;-67
2024/01/31 11:55:47;;;;;;;5.70;3.08;;;;;;;;;;4997044;28;20297;-67
2024/01/31 11:58:13;;;;;;;5.25;3.05;;;;;;;;;;4996476;28;20417;-66
2024/01/31 12:00:39;;;;;;;6.00;3.00;;;;;;;;;;4996694;28;20062;-66
2024/01/31 12:03:04;;;;;;;4.70;3.13;;;;;;;;;;4997540;28;20128;-68
2024/01/31 12:05:30;;;;;;;6.85;2.70;;;;;;;;;;4995953;28;20050;-68
2024/01/31 12:07:59;;;;;;;4.38;2.85;;;;;;;;;;4997068;28;20042;-68
2024/01/31 12:10:26;;;;;;;3.55;2.92;;;;;;;;;;4996119;28;20088;-67
2024/01/31 12:12:52;;;;;;;5.35;3.00;;;;;;;;;;4997080;28;20056;-66
2024/01/31 12:15:19;;;;;;;5.28;2.72;;;;;;;;;;4996685;28;20450;-66
2024/01/31 12:17:46;;;;;;;4.03;2.97;;;;;;;;;;4995676;28;20503;-66
2024/01/31 12:20:12;;;;;;;4.00;2.50;;;;;;;;;;4996150;28;20052;-67
2024/01/31 12:22:38;;;;;;;10.35;2.70;;;;;;;;;;4978761;28;20111;-66
2024/01/31 12:25:04;;;;;;;4.78;2.85;;;;;;;;;;4997743;28;20046;-66
2024/01/31 12:27:31;;;;;;;5.00;3.25;;;;;;;;;;4995026;28;20050;-66
2024/01/31 12:29:59;;;;;;;3.38;2.63;;;;;;;;;;4992145;28;20034;-67
2024/01/31 12:32:25;;;;;;;5.85;3.15;;;;;;;;;;4990953;28;20042;-67
2024/01/31 12:34:51;;;;;;;3.00;2.05;;;;;;;;;;4994666;28;20204;-67
2024/01/31 12:37:16;;;;;;;4.05;2.72;;;;;;;;;;4992514;28;20053;-67
2024/01/31 12:39:42;;;;;;;7.38;2.92;;;;;;;;;;4992244;28;20045;-67
2024/01/31 12:42:09;;;;;;;4.07;2.63;;;;;;;;;;4976460;28;20077;-67
2024/01/31 12:44:34;;;;;;;4.18;3.03;;;;;;;;;;4993023;28;20077;-67
2024/01/31 12:47:05;;;;;;;6.45;2.33;;;;;;;;;;4994642;28;20407;-67
2024/01/31 12:49:33;;;;;;;5.65;2.75;;;;;;;;;;4992704;28;20145;-67
2024/01/31 12:51:59;;;;;;;4.60;2.85;;;;;;;;;;4993132;28;20038;-67
2024/01/31 12:54:25;;;;;;;10.82;3.00;;;;;;;;;;4992741;28;20745;-67
2024/01/31 12:56:50;;;;;;;6.68;2.63;;;;;;;;;;4994088;28;20153;-67
2024/01/31 12:59:17;;;;;;;6.15;2.78;;;;;;;;;;4993628;28;20038;-67
2024/01/31 13:01:43;;;;;;;3.28;2.45;;;;;;;;;;4993281;28;20049;-67
2024/01/31 13:04:08;;;;;;;4.53;2.85;;;;;;;;;;4993200;28;20046;-67
2024/01/31 13:06:34;;;;;;;5.70;2.92;;;;;;;;;;4994756;28;20100;-67
2024/01/31 13:08:59;;;;;;;4.05;2.80;;;;;;;;;;4995176;28;20553;-67
2024/01/31 13:11:24;;;;;;;4.55;2.80;;;;;;;;;;4993651;28;20145;-67
2024/01/31 13:13:50;;;;;;;3.63;2.47;;;;;;;;;;4995999;28;20698;-67
2024/01/31 13:16:15;;;;;;;2.92;2.60;;;;;;;;;;4995044;28;20410;-68
2024/01/31 13:18:41;;;;;;;4.15;2.80;;;;;;;;;;4995801;28;20525;-67
2024/01/31 13:21:07;;;;;;;6.88;2.97;;;;;;;;;;4995789;28;20054;-67
2024/01/31 13:23:35;;;;;;;5.70;2.13;;;;;;;;;;4994356;28;20052;-67
2024/01/31 13:26:00;;;;;;;7.28;2.63;;;;;;;;;;4996167;28;20056;-67
2024/01/31 13:28:26;;;;;;;3.30;2.88;;;;;;;;;;4994770;28;20046;-67
2024/01/31 13:30:51;;;;;;;4.13;2.75;;;;;;;;;;4995636;28;20037;-67
2024/01/31 13:33:16;;;;;;;6.03;3.22;;;;;;;;;;4994741;28;20279;-67
2024/01/31 13:35:42;;;;;;;8.45;3.50;;;;;;;;;;4965484;28;20045;-67
2024/01/31 13:38:07;;;;;;;5.05;2.80;;;;;;;;;;4995724;28;20057;-67
2024/01/31 13:40:32;;;;;;;3.67;2.83;;;;;;;;;;4994553;28;20057;-67
2024/01/31 13:42:58;;;;;;;3.88;2.90;;;;;;;;;;4995183;28;20901;-67
2024/01/31 13:45:23;;;;;;;4.63;2.97;;;;;;;;;;4978051;28;20049;-67
2024/01/31 13:47:49;;;;;;;3.50;2.97;;;;;;;;;;4995107;28;20061;-67
2024/01/31 13:50:14;;;;;;;6.05;3.20;;;;;;;;;;4995446;28;20498;-67
2024/01/31 13:52:40;;;;;;;6.00;3.00;;;;;;;;;;4994238;28;20103;-67
2024/01/31 13:55:06;;;;;;;5.53;3.05;;;;;;;;;;4995780;28;20060;-67
2024/01/31 13:57:31;;;;;;;6.88;3.28;;;;;;;;;;4993547;28;20928;-67
2024/01/31 13:59:57;;;;;;;5.93;3.30;;;;;;;;;;4995211;28;20073;-67
2024/01/31 14:02:24;;;;;;;6.32;2.58;;;;;;;;;;4993734;28;20523;-67
2024/01/31 14:04:49;;;;;;;6.57;3.45;;;;;;;;;;4987559;28;20089;-67
2024/01/31 14:07:14;;;;;;;5.60;3.30;;;;;;;;;;4994554;28;20717;-67
2024/01/31 14:09:40;;;;;;;5.93;2.85;;;;;;;;;;4996336;28;20046;-67
2024/01/31 14:12:06;;;;;;;3.63;2.75;;;;;;;;;;4995528;28;20080;-67
2024/01/31 14:14:32;;;;;;;5.15;3.08;;;;;;;;;;4994951;28;20145;-67
2024/01/31 14:16:59;;;;;;;6.53;2.90;;;;;;;;;;4995905;28;20392;-67
2024/01/31 14:19:28;;;;;;;5.82;3.25;;;;;;;;;;4993260;28;20046;-67
2024/01/31 14:21:53;;;;;;;5.80;3.20;;;;;;;;;;4993623;28;20071;-67
2024/01/31 14:24:19;;;;;;;6.03;3.00;;;;;;;;;;4996041;28;20395;-67
2024/01/31 14:26:44;;;;;;;4.13;2.50;;;;;;;;;;4995513;28;20041;-67
2024/01/31 14:29:12;;;;;;;4.03;2.38;;;;;;;;;;4996971;28;20510;-67
2024/01/31 14:31:44;;;;;;;6.72;2.70;;;;;;;;;;4995879;28;20415;-66
2024/01/31 14:34:10;;;;;;;6.72;2.80;;;;;;;;;;4997589;28;20053;-67